createdAt,value
2022-10-28T00:01:06.283Z,30.63
2022-10-28T00:03:33.778Z,31.87
2022-10-28T00:06:04.912Z,31.37
2022-10-28T00:08:32.101Z,42.50
2022-10-28T00:11:03.176Z,93.73
2022-10-28T00:13:31.206Z,83.97
2022-10-28T00:16:04.656Z,38.33
2022-10-28T00:18:31.719Z,282.47
2022-10-28T00:21:06.241Z,52.37
2022-10-28T00:23:33.465Z,72.67
2022-10-28T00:26:08.194Z,54.07
2022-10-28T00:28:35.401Z,108.37
2022-10-28T00:31:09.270Z,96.53
2022-10-28T00:33:36.389Z,65.53
2022-10-28T00:36:09.487Z,87.27
2022-10-28T00:38:36.593Z,97.40
2022-10-28T00:41:03.720Z,136.73
2022-10-28T00:43:36.680Z,191.40
2022-10-28T00:46:04.703Z,137.10
2022-10-28T00:48:31.880Z,107.00
2022-10-28T00:50:59.271Z,155.90
2022-10-28T00:53:29.478Z,134.37
2022-10-28T00:55:57.122Z,110.50
2022-10-28T00:58:25.663Z,120.07
2022-10-28T01:00:52.900Z,127.43
2022-10-28T01:03:20.030Z,167.23
2022-10-28T01:05:47.998Z,160.63
2022-10-28T01:08:15.144Z,109.33
2022-10-28T01:10:49.902Z,230.23
2022-10-28T01:13:24.719Z,102.80
2022-10-28T01:16:08.134Z,135.43
2022-10-28T01:18:41.214Z,179.90
2022-10-28T01:21:08.320Z,128.27
2022-10-28T01:23:41.300Z,114.70
2022-10-28T01:26:08.342Z,159.90
2022-10-28T01:28:50.903Z,115.47
2022-10-28T01:31:17.981Z,97.73
2022-10-28T01:33:51.892Z,84.67
2022-10-28T01:36:25.552Z,122.57
2022-10-28T01:38:56.813Z,115.73
2022-10-28T01:41:34.061Z,89.40
2022-10-28T01:44:05.845Z,144.33
2022-10-28T01:46:39.457Z,83.77
2022-10-28T01:49:10.554Z,100.87
2022-10-28T01:51:52.793Z,84.50
2022-10-28T01:54:20.947Z,99.43
2022-10-28T01:56:49.032Z,80.70
2022-10-28T01:59:21.691Z,44.67
2022-10-28T02:01:48.911Z,74.00
2022-10-28T02:04:16.161Z,115.03
2022-10-28T02:06:44.942Z,52.43
2022-10-28T02:09:17.967Z,98.20
2022-10-28T02:11:51.733Z,109.13
2022-10-28T02:14:39.291Z,118.03
2022-10-28T02:17:06.364Z,53.70
2022-10-28T02:19:50.197Z,48.67
2022-10-28T02:22:36.134Z,63.30
2022-10-28T02:25:08.259Z,62.13
2022-10-28T02:27:35.347Z,72.37
2022-10-28T02:30:05.478Z,88.30
2022-10-28T02:32:34.944Z,113.47
2022-10-28T02:35:03.131Z,104.10
2022-10-28T02:37:34.508Z,134.30
2022-10-28T02:40:05.022Z,80.87
2022-10-28T02:42:34.753Z,124.27
2022-10-28T02:45:07.057Z,115.57
2022-10-28T02:47:36.651Z,62.50
2022-10-28T02:50:08.083Z,170.40
2022-10-28T02:52:35.415Z,141.20
2022-10-28T02:55:05.102Z,260.03
2022-10-28T02:57:36.736Z,206.43
2022-10-28T03:00:08.631Z,169.07
2022-10-28T03:02:35.806Z,188.83
2022-10-28T03:05:03.563Z,169.63
2022-10-28T03:07:30.660Z,119.97
2022-10-28T03:09:57.746Z,83.60
2022-10-28T03:12:24.837Z,175.87
2022-10-28T03:14:51.942Z,85.27
2022-10-28T03:17:19.002Z,133.57
2022-10-28T03:19:46.157Z,225.30
2022-10-28T03:22:13.323Z,231.13
2022-10-28T03:24:40.443Z,190.07
2022-10-28T03:27:07.536Z,175.80
2022-10-28T03:29:34.595Z,141.50
2022-10-28T03:32:01.664Z,111.17
2022-10-28T03:34:28.793Z,59.23
2022-10-28T03:36:55.888Z,52.43
2022-10-28T03:39:22.944Z,60.73
2022-10-28T03:41:50.091Z,69.50
2022-10-28T03:44:17.161Z,42.30
2022-10-28T03:46:44.318Z,24.30
2022-10-28T03:49:11.384Z,21.93
2022-10-28T03:51:38.483Z,20.57
2022-10-28T03:54:05.600Z,25.43
2022-10-28T03:56:32.683Z,25.87
2022-10-28T03:58:59.748Z,24.17
2022-10-28T04:01:27.012Z,22.80
2022-10-28T04:03:54.128Z,20.73
2022-10-28T04:06:21.225Z,26.00
2022-10-28T04:08:48.325Z,27.63
2022-10-28T04:11:15.403Z,52.33
2022-10-28T04:13:42.521Z,31.23
2022-10-28T04:16:09.581Z,72.07
2022-10-28T04:18:36.707Z,49.10
2022-10-28T04:21:04.186Z,129.83
2022-10-28T04:23:31.307Z,35.90
2022-10-28T04:25:58.396Z,132.53
2022-10-28T04:28:25.488Z,38.20
2022-10-28T04:30:52.743Z,40.87
2022-10-28T04:33:19.799Z,27.30
2022-10-28T04:35:46.894Z,25.93
2022-10-28T04:38:15.295Z,29.47
2022-10-28T04:40:42.529Z,24.00
2022-10-28T04:43:11.676Z,21.77
2022-10-28T04:45:39.373Z,24.63
2022-10-28T04:48:06.699Z,21.53
2022-10-28T04:50:33.785Z,18.37
2022-10-28T04:53:00.961Z,19.97
2022-10-28T04:55:28.026Z,19.23
2022-10-28T04:57:55.886Z,19.87
2022-10-28T05:00:23.426Z,21.60
2022-10-28T05:02:50.769Z,21.17
2022-10-28T05:05:18.419Z,21.77
2022-10-28T05:07:45.723Z,25.63
2022-10-28T05:10:15.396Z,24.83
2022-10-28T05:12:43.209Z,27.10
2022-10-28T05:15:11.081Z,25.30
2022-10-28T05:17:44.884Z,29.00
2022-10-28T05:20:12.714Z,30.00
2022-10-28T05:22:45.603Z,30.60
2022-10-28T05:25:12.723Z,37.77
2022-10-28T05:27:39.826Z,31.37
2022-10-28T05:30:07.333Z,38.17
2022-10-28T05:32:34.391Z,27.63
2022-10-28T05:35:01.562Z,24.37
2022-10-28T05:37:28.664Z,25.80
2022-10-28T05:39:55.799Z,27.60
2022-10-28T05:42:22.905Z,24.80
2022-10-28T05:44:49.964Z,22.63
2022-10-28T05:47:17.034Z,24.03
2022-10-28T05:49:44.087Z,24.20
2022-10-28T05:52:11.274Z,27.50
2022-10-28T05:54:38.337Z,22.17
2022-10-28T05:57:05.402Z,20.97
2022-10-28T05:59:32.546Z,22.63
2022-10-28T06:01:59.704Z,20.77
2022-10-28T06:04:26.935Z,18.17
2022-10-28T06:06:56.011Z,18.63
2022-10-28T06:09:23.231Z,20.10
2022-10-28T06:11:48.743Z,20.07
2022-10-28T06:14:15.839Z,19.53
2022-10-28T06:16:42.898Z,21.23
2022-10-28T06:19:10.053Z,24.10
2022-10-28T06:21:37.141Z,22.13
2022-10-28T06:24:06.590Z,26.60
2022-10-28T06:26:34.673Z,26.77
2022-10-28T06:29:01.755Z,25.93
2022-10-28T06:31:28.928Z,21.43
2022-10-28T06:33:56.326Z,25.77
2022-10-28T06:36:23.520Z,24.50
2022-10-28T06:38:52.614Z,23.63
2022-10-28T06:41:19.712Z,19.83
2022-10-28T06:43:46.983Z,20.53
2022-10-28T06:46:14.152Z,19.43
2022-10-28T06:48:42.765Z,17.90
2022-10-28T06:51:09.983Z,18.83
2022-10-28T06:53:37.069Z,19.40
2022-10-28T06:56:04.239Z,19.57
2022-10-28T06:58:31.356Z,25.13
2022-10-28T07:01:03.587Z,34.90
2022-10-28T07:03:32.916Z,33.23
2022-10-28T07:06:00.314Z,27.33
2022-10-28T07:08:27.751Z,27.83
2022-10-28T07:10:58.539Z,29.23
2022-10-28T07:13:25.661Z,29.00
2022-10-28T07:15:53.202Z,36.93
2022-10-28T07:18:20.436Z,37.40
2022-10-28T07:20:47.755Z,33.40
2022-10-28T07:23:14.823Z,30.60
2022-10-28T07:25:42.210Z,30.77
2022-10-28T07:28:09.396Z,33.80
2022-10-28T07:30:36.485Z,38.17
2022-10-28T07:33:05.245Z,29.73
2022-10-28T07:35:32.507Z,29.10
2022-10-28T07:37:59.810Z,35.30
2022-10-28T07:40:26.925Z,35.07
2022-10-28T07:42:54.174Z,31.40
2022-10-28T07:45:21.402Z,26.37
2022-10-28T07:47:48.483Z,29.37
2022-10-28T07:50:15.616Z,30.27
2022-10-28T07:52:42.797Z,25.87
2022-10-28T07:55:10.923Z,25.67
2022-10-28T07:57:38.458Z,27.87
2022-10-28T08:00:06.341Z,21.30
2022-10-28T08:02:33.524Z,20.40
2022-10-28T08:05:01.965Z,17.95
2022-10-28T08:07:29.195Z,26.48
2022-10-28T08:09:56.266Z,22.58
2022-10-28T08:12:23.319Z,18.98
2022-10-28T08:14:50.448Z,19.92
2022-10-28T08:17:17.548Z,20.27
2022-10-28T08:19:44.706Z,25.13
2022-10-28T08:22:11.787Z,25.50
2022-10-28T08:24:38.880Z,22.50
2022-10-28T08:27:06.046Z,26.42
2022-10-28T08:29:33.446Z,30.08
2022-10-28T08:32:00.566Z,25.85
2022-10-28T08:34:29.932Z,24.88
2022-10-28T08:36:57.615Z,29.15
2022-10-28T08:39:24.960Z,20.98
2022-10-28T08:41:57.076Z,23.45
2022-10-28T08:44:37.892Z,25.23
2022-10-28T08:47:08.002Z,20.42
2022-10-28T08:49:37.160Z,19.55
2022-10-28T08:52:21.423Z,23.70
2022-10-28T08:54:54.472Z,24.98
2022-10-28T08:57:22.786Z,22.35
2022-10-28T08:59:52.933Z,26.15
2022-10-28T09:02:24.109Z,21.52
2022-10-28T09:05:05.831Z,19.25
2022-10-28T09:07:34.349Z,24.00
2022-10-28T09:10:01.484Z,25.33
2022-10-28T09:12:28.650Z,19.27
2022-10-28T09:14:56.119Z,18.75
2022-10-28T09:17:29.200Z,20.27
2022-10-28T09:20:04.374Z,19.42
2022-10-28T09:22:31.453Z,23.83
2022-10-28T09:24:58.524Z,21.85
2022-10-28T09:27:30.650Z,22.42
2022-10-28T09:30:15.055Z,22.20
2022-10-28T09:32:46.152Z,29.40
2022-10-28T09:35:18.293Z,26.50
2022-10-28T09:38:11.594Z,23.73
2022-10-28T09:40:41.466Z,31.23
2022-10-28T09:43:20.855Z,24.85
2022-10-28T09:45:48.931Z,25.80
2022-10-28T09:48:22.129Z,20.58
2022-10-28T09:50:51.172Z,27.48
2022-10-28T09:53:35.954Z,24.50
2022-10-28T09:56:03.731Z,21.27
2022-10-28T09:58:30.923Z,21.27
2022-10-28T10:00:58.049Z,20.48
2022-10-28T10:03:25.240Z,22.58
2022-10-28T10:05:54.265Z,24.30
2022-10-28T10:08:22.621Z,20.13
2022-10-28T10:10:52.954Z,21.92
2022-10-28T10:13:22.870Z,20.60
2022-10-28T10:15:53.388Z,17.20
2022-10-28T10:18:29.009Z,13.63
2022-10-28T10:20:58.592Z,17.23
2022-10-28T10:23:33.037Z,16.35
2022-10-28T10:26:06.681Z,20.20
2022-10-28T10:28:38.009Z,17.63
2022-10-28T10:31:06.170Z,22.35
2022-10-28T10:33:35.403Z,19.25
2022-10-28T10:36:05.028Z,17.77
2022-10-28T10:38:32.752Z,14.88
2022-10-28T10:41:00.172Z,12.80
2022-10-28T10:43:34.529Z,18.85
2022-10-28T10:46:06.360Z,20.25
2022-10-28T10:48:36.258Z,15.25
2022-10-28T10:51:23.696Z,16.35
2022-10-28T10:53:52.760Z,19.30
2022-10-28T10:56:27.553Z,20.67
2022-10-28T10:58:56.038Z,20.98
2022-10-28T11:01:28.146Z,26.75
2022-10-28T11:06:31.509Z,29.42
2022-10-28T11:09:00.694Z,17.65
2022-10-28T11:11:38.330Z,25.15
2022-10-28T11:14:13.324Z,20.40
2022-10-28T11:16:49.665Z,18.73
2022-10-28T11:19:21.996Z,17.25
2022-10-28T11:22:07.713Z,17.05
2022-10-28T11:24:55.470Z,25.92
2022-10-28T11:27:41.555Z,20.90
2022-10-28T11:30:12.796Z,19.92
2022-10-28T11:33:08.412Z,20.70
2022-10-28T11:35:54.758Z,18.15
2022-10-28T11:38:27.644Z,14.00
2022-10-28T11:40:57.480Z,16.67
2022-10-28T11:43:27.331Z,16.90
2022-10-28T11:46:06.325Z,17.73
2022-10-28T11:48:51.945Z,17.25
2022-10-28T11:51:19.061Z,17.20
2022-10-28T11:53:53.616Z,17.65
2022-10-28T11:56:23.640Z,19.15
2022-10-28T11:59:16.794Z,19.55
2022-10-28T12:02:02.251Z,20.45
2022-10-28T12:04:32.384Z,15.13
2022-10-28T12:06:59.515Z,16.65
2022-10-28T12:09:45.440Z,17.15
2022-10-28T12:12:20.046Z,20.92
2022-10-28T12:14:47.102Z,19.55
2022-10-28T12:17:14.607Z,24.77
2022-10-28T12:20:01.962Z,24.52
2022-10-28T12:22:32.211Z,20.95
2022-10-28T12:25:02.646Z,25.60
2022-10-28T12:27:31.822Z,23.33
2022-10-28T12:30:10.290Z,26.83
2022-10-28T12:32:38.547Z,24.85
2022-10-28T12:35:15.252Z,33.47
2022-10-28T12:38:02.554Z,24.77
2022-10-28T12:40:36.153Z,26.60
2022-10-28T12:43:25.096Z,24.63
2022-10-28T12:45:54.350Z,20.92
2022-10-28T12:48:33.762Z,21.50
2022-10-28T12:51:09.683Z,21.58
2022-10-28T12:53:42.766Z,22.48
2022-10-28T12:56:24.922Z,22.50
2022-10-28T12:58:55.594Z,16.67
2022-10-28T13:01:25.114Z,23.33
2022-10-28T13:03:52.854Z,23.50
2022-10-28T13:06:19.923Z,21.88
2022-10-28T13:08:47.055Z,23.88
2022-10-28T13:11:20.254Z,26.45
2022-10-28T13:14:13.321Z,23.40
2022-10-28T13:16:59.306Z,28.27
2022-10-28T13:19:36.679Z,21.23
2022-10-28T13:22:03.759Z,25.90
2022-10-28T13:24:43.097Z,20.98
2022-10-28T13:27:12.920Z,16.60
2022-10-28T13:29:41.171Z,20.23
2022-10-28T13:32:24.184Z,21.35
2022-10-28T13:34:51.313Z,21.40
2022-10-28T13:37:20.833Z,20.45
2022-10-28T13:39:48.215Z,21.20
2022-10-28T13:42:16.000Z,17.75
2022-10-28T13:44:52.285Z,20.83
2022-10-28T13:47:35.435Z,17.70
2022-10-28T13:50:08.776Z,17.98
2022-10-28T13:52:37.002Z,18.58
2022-10-28T13:55:22.860Z,22.55
2022-10-28T13:57:52.140Z,25.48
2022-10-28T14:00:20.132Z,20.42
2022-10-28T14:02:48.784Z,18.33
2022-10-28T14:05:17.313Z,20.48
2022-10-28T14:08:01.097Z,15.95
2022-10-28T14:10:29.456Z,19.67
2022-10-28T14:12:59.547Z,17.67
2022-10-28T14:15:29.393Z,19.75
2022-10-28T14:18:09.924Z,19.27
2022-10-28T14:20:43.315Z,18.63
2022-10-28T14:23:22.813Z,19.25
2022-10-28T14:25:56.264Z,19.45
2022-10-28T14:28:29.734Z,14.73
2022-10-28T14:31:11.772Z,16.67
2022-10-28T14:33:45.151Z,14.32
2022-10-28T14:36:15.045Z,19.50
2022-10-28T14:38:54.104Z,19.80
2022-10-28T14:41:27.281Z,17.15
2022-10-28T14:44:02.341Z,16.85
2022-10-28T14:46:32.792Z,17.83
2022-10-28T14:49:01.296Z,16.67
2022-10-28T14:51:30.752Z,14.40
2022-10-28T14:53:59.568Z,15.85
2022-10-28T14:56:28.263Z,16.40
2022-10-28T14:58:58.243Z,17.15
2022-10-28T15:01:27.084Z,18.08
2022-10-28T15:03:59.700Z,19.25
2022-10-28T15:06:28.826Z,15.10
2022-10-28T15:08:56.498Z,16.15
2022-10-28T15:11:23.766Z,13.82
2022-10-28T15:13:53.985Z,16.58
2022-10-28T15:16:22.333Z,16.30
2022-10-28T15:18:50.573Z,15.10
2022-10-28T15:21:19.108Z,15.70
2022-10-28T15:23:47.602Z,15.02
2022-10-28T15:26:18.885Z,17.73
2022-10-28T15:28:45.977Z,13.05
2022-10-28T15:31:13.070Z,14.27
2022-10-28T15:33:43.433Z,16.00
2022-10-28T15:36:17.752Z,15.20
2022-10-28T15:38:46.584Z,18.20
2022-10-28T15:41:22.828Z,17.73
2022-10-28T15:43:57.022Z,13.93
2022-10-28T15:46:24.748Z,11.70
2022-10-28T15:48:52.446Z,15.20
2022-10-28T15:51:20.252Z,13.50
2022-10-28T15:53:47.292Z,17.00
2022-10-28T15:56:14.377Z,17.20
2022-10-28T15:58:45.264Z,15.30
2022-10-28T16:01:51.003Z,19.73
2022-10-28T16:04:23.792Z,16.98
2022-10-28T16:07:07.047Z,24.73
2022-10-28T16:09:38.396Z,18.42
2022-10-28T16:12:18.209Z,14.38
2022-10-28T16:14:50.680Z,19.20
2022-10-28T16:17:27.012Z,17.83
2022-10-28T16:19:59.115Z,17.50
2022-10-28T16:22:27.940Z,1296.63
2022-10-28T16:24:55.152Z,1605.27
2022-10-28T16:27:26.461Z,642.93
2022-10-28T16:29:53.739Z,155.37
2022-10-28T16:32:23.385Z,22.47
2022-10-28T16:34:50.505Z,36.33
2022-10-28T16:37:20.889Z,368.47
2022-10-28T16:39:48.039Z,79.37
2022-10-28T16:42:15.323Z,34.40
2022-10-28T16:44:42.411Z,24.90
2022-10-28T16:47:13.564Z,22.93
2022-10-28T16:49:44.078Z,37.83
2022-10-28T16:52:16.120Z,31.57
2022-10-28T16:54:43.344Z,23.90
2022-10-28T16:57:10.472Z,18.90
2022-10-28T16:59:37.674Z,18.83
2022-10-28T17:02:05.591Z,20.43
2022-10-28T17:04:32.832Z,17.33
2022-10-28T17:06:59.923Z,19.37
2022-10-28T17:09:27.030Z,17.60
2022-10-28T17:11:54.121Z,18.13
2022-10-28T17:14:21.217Z,16.73
2022-10-28T17:16:48.318Z,21.90
2022-10-28T17:19:15.491Z,15.17
2022-10-28T17:21:43.175Z,19.97
2022-10-28T17:24:10.329Z,15.33
2022-10-28T17:26:37.402Z,16.50
2022-10-28T17:29:04.499Z,15.10
2022-10-28T17:31:31.578Z,16.33
2022-10-28T17:33:58.848Z,21.37
2022-10-28T17:36:25.951Z,19.93
2022-10-28T17:38:53.071Z,17.90
2022-10-28T17:41:20.174Z,19.63
2022-10-28T17:43:47.232Z,21.40
2022-10-28T17:46:14.361Z,20.30
2022-10-28T17:48:41.549Z,21.30
2022-10-28T17:51:08.658Z,18.53
2022-10-28T17:53:35.709Z,21.03
2022-10-28T17:56:04.155Z,21.97
2022-10-28T17:58:31.718Z,24.30
2022-10-28T18:00:59.492Z,19.80
2022-10-28T18:03:26.768Z,20.70
2022-10-28T18:05:54.017Z,21.03
2022-10-28T18:08:21.474Z,22.00
2022-10-28T18:10:55.792Z,16.63
2022-10-28T18:13:30.315Z,19.33
2022-10-28T18:15:58.003Z,15.00
2022-10-28T18:18:28.121Z,14.23
2022-10-28T18:20:55.728Z,18.30
2022-10-28T18:23:25.944Z,14.53
2022-10-28T18:25:59.691Z,16.00
2022-10-28T18:28:27.617Z,16.80
2022-10-28T18:30:54.735Z,23.33
2022-10-28T18:33:22.026Z,15.40
2022-10-28T18:35:49.180Z,15.40
2022-10-28T18:38:16.245Z,16.87
2022-10-28T18:40:47.240Z,16.13
2022-10-28T18:43:15.041Z,15.33
2022-10-28T18:45:42.204Z,18.40
2022-10-28T18:48:09.310Z,13.33
2022-10-28T18:50:36.396Z,16.33
2022-10-28T18:53:03.924Z,15.73
2022-10-28T18:55:31.072Z,15.20
2022-10-28T18:57:58.190Z,17.00
2022-10-28T19:00:25.415Z,16.03
2022-10-28T19:05:24.964Z,15.27
2022-10-28T19:07:52.705Z,14.77
2022-10-28T19:10:20.065Z,17.17
2022-10-28T19:12:52.038Z,12.57
2022-10-28T19:15:20.199Z,16.95
2022-10-28T19:17:47.261Z,14.53
2022-10-28T19:20:14.477Z,16.30
2022-10-28T19:22:41.653Z,14.03
2022-10-28T19:25:08.880Z,16.73
2022-10-28T19:27:35.995Z,22.83
2022-10-28T19:30:06.464Z,20.97
2022-10-28T19:32:38.499Z,17.50
2022-10-28T19:35:05.865Z,21.13
2022-10-28T19:37:32.950Z,22.70
2022-10-28T19:40:00.108Z,22.97
2022-10-28T19:42:27.356Z,28.73
2022-10-28T19:44:54.505Z,29.37
2022-10-28T19:47:21.621Z,28.40
2022-10-28T19:49:48.668Z,26.17
2022-10-28T19:52:16.179Z,27.67
2022-10-28T19:54:43.325Z,30.07
2022-10-28T19:59:43.487Z,21.67
2022-10-28T20:02:11.369Z,19.70
2022-10-28T20:04:39.335Z,19.43
2022-10-28T20:07:06.413Z,20.63
2022-10-28T20:09:33.677Z,22.57
2022-10-28T20:12:01.843Z,24.40
2022-10-28T20:14:29.177Z,25.53
2022-10-28T20:16:56.332Z,21.53
2022-10-28T20:19:23.409Z,24.20
2022-10-28T20:21:50.878Z,23.17
2022-10-28T20:24:18.229Z,19.80
2022-10-28T20:26:45.405Z,19.43
2022-10-28T20:29:12.506Z,18.70
2022-10-28T20:31:39.593Z,18.10
2022-10-28T20:34:06.874Z,23.23
2022-10-28T20:36:35.304Z,18.47
2022-10-28T20:39:04.224Z,17.57
2022-10-28T20:41:33.339Z,19.87
2022-10-28T20:44:01.590Z,33.63
2022-10-28T20:46:28.988Z,22.50
2022-10-28T20:48:56.736Z,23.03
2022-10-28T20:51:25.114Z,22.90
2022-10-28T20:53:52.192Z,22.27
2022-10-28T20:56:20.688Z,25.70
2022-10-28T20:58:47.992Z,26.80
2022-10-28T21:01:16.618Z,30.33
2022-10-28T21:03:44.490Z,26.13
2022-10-28T21:08:44.814Z,27.67
2022-10-28T21:11:14.172Z,25.57
2022-10-28T21:13:41.442Z,28.33
2022-10-28T21:16:09.615Z,28.80
2022-10-28T21:18:37.354Z,25.30
2022-10-28T21:21:04.448Z,25.07
2022-10-28T21:23:31.535Z,29.07
2022-10-28T21:26:02.478Z,30.70
2022-10-28T21:28:30.310Z,35.27
2022-10-28T21:31:00.938Z,26.87
2022-10-28T21:33:28.541Z,35.83
2022-10-28T21:35:56.889Z,26.03
2022-10-28T21:38:24.238Z,27.23
2022-10-28T21:40:58.652Z,26.53
2022-10-28T21:43:29.609Z,25.13
2022-10-28T21:45:56.671Z,26.27
2022-10-28T21:48:24.007Z,27.23
2022-10-28T21:50:51.876Z,34.03
2022-10-28T21:53:19.161Z,24.07
2022-10-28T21:55:47.717Z,25.17
2022-10-28T21:58:16.725Z,26.73
2022-10-28T22:00:44.057Z,24.17
2022-10-28T22:03:11.811Z,33.33
2022-10-28T22:05:39.035Z,38.50
2022-10-28T22:08:06.140Z,33.57
2022-10-28T22:10:33.217Z,34.20
2022-10-28T22:13:00.338Z,35.53
2022-10-28T22:15:27.412Z,33.70
2022-10-28T22:17:54.852Z,28.33
2022-10-28T22:20:22.195Z,20.83
2022-10-28T22:22:49.354Z,26.73
2022-10-28T22:25:16.483Z,24.40
2022-10-28T22:27:45.018Z,25.43
2022-10-28T22:30:13.087Z,25.53
2022-10-28T22:32:40.708Z,25.93
2022-10-28T22:35:08.092Z,36.97
2022-10-28T22:37:35.210Z,30.73
2022-10-28T22:40:02.321Z,29.50
2022-10-28T22:42:29.392Z,24.03
2022-10-28T22:44:56.439Z,28.60
2022-10-28T22:47:23.547Z,31.57
2022-10-28T22:49:50.669Z,25.40
2022-10-28T22:52:17.763Z,38.93
2022-10-28T22:54:44.851Z,29.57
2022-10-28T22:57:11.938Z,27.33
2022-10-28T22:59:38.988Z,25.70
2022-10-28T23:02:06.284Z,31.90
2022-10-28T23:04:33.453Z,23.90
2022-10-28T23:07:00.557Z,35.17
2022-10-28T23:09:27.747Z,24.70
2022-10-28T23:11:54.863Z,28.17
2022-10-28T23:14:21.917Z,29.47
2022-10-28T23:16:49.323Z,27.93
2022-10-28T23:19:16.408Z,26.20
2022-10-28T23:21:43.498Z,28.70
2022-10-28T23:24:11.072Z,30.70
2022-10-28T23:26:38.261Z,31.63
2022-10-28T23:29:05.406Z,33.67
2022-10-28T23:31:32.477Z,32.83
2022-10-28T23:33:59.864Z,30.97
2022-10-28T23:36:26.973Z,31.07
2022-10-28T23:38:56.372Z,30.67
2022-10-28T23:41:23.504Z,30.00
2022-10-28T23:43:50.749Z,31.03
2022-10-28T23:46:18.595Z,26.57
2022-10-28T23:48:45.737Z,37.03
2022-10-28T23:51:12.910Z,33.27
2022-10-28T23:53:40.003Z,31.00
2022-10-28T23:56:07.415Z,28.80
2022-10-28T23:58:34.505Z,31.90
